sensor_id;sensor_type;location;lat;lon;timestamp;temperature;humidity
3560;DHT22;1794;48.804;9.156;2022-09-09T00:00:20;12.80;99.90
3560;DHT22;1794;48.804;9.156;2022-09-09T00:02:55;12.70;99.90
3560;DHT22;1794;48.804;9.156;2022-09-09T00:05:31;12.60;99.90
3560;DHT22;1794;48.804;9.156;2022-09-09T00:08:00;12.60;99.90
3560;DHT22;1794;48.804;9.156;2022-09-09T00:10:32;12.60;99.90
3560;DHT22;1794;48.804;9.156;2022-09-09T00:13:05;12.60;99.90
3560;DHT22;1794;48.804;9.156;2022-09-09T00:15:39;12.70;99.90
3560;DHT22;1794;48.804;9.156;2022-09-09T00:18:15;12.80;99.90
3560;DHT22;1794;48.804;9.156;2022-09-09T00:20:47;12.80;99.90
3560;DHT22;1794;48.804;9.156;2022-09-09T00:23:21;13.10;99.90
3560;DHT22;1794;48.804;9.156;2022-09-09T00:25:57;13.20;99.90
3560;DHT22;1794;48.804;9.156;2022-09-09T00:28:27;13.40;99.90
3560;DHT22;1794;48.804;9.156;2022-09-09T00:31:00;13.50;99.90
3560;DHT22;1794;48.804;9.156;2022-09-09T00:33:30;13.60;99.90
3560;DHT22;1794;48.804;9.156;2022-09-09T00:35:58;14.00;99.90
3560;DHT22;1794;48.804;9.156;2022-09-09T00:38:31;14.20;99.90
3560;DHT22;1794;48.804;9.156;2022-09-09T00:41:03;14.30;99.90
3560;DHT22;1794;48.804;9.156;2022-09-09T00:43:34;14.60;99.90
3560;DHT22;1794;48.804;9.156;2022-09-09T00:46:16;14.90;99.90
3560;DHT22;1794;48.804;9.156;2022-09-09T00:48:54;15.20;99.90
3560;DHT22;1794;48.804;9.156;2022-09-09T00:51:32;15.30;99.90
3560;DHT22;1794;48.804;9.156;2022-09-09T00:54:19;15.40;99.90
3560;DHT22;1794;48.804;9.156;2022-09-09T00:56:57;15.50;99.90
3560;DHT22;1794;48.804;9.156;2022-09-09T00:59:32;15.60;99.90
3560;DHT22;1794;48.804;9.156;2022-09-09T01:02:04;15.70;99.90
3560;DHT22;1794;48.804;9.156;2022-09-09T01:04:36;15.80;99.90
3560;DHT22;1794;48.804;9.156;2022-09-09T01:07:08;15.80;99.90
3560;DHT22;1794;48.804;9.156;2022-09-09T01:09:50;15.80;99.90
3560;DHT22;1794;48.804;9.156;2022-09-09T01:12:25;15.80;99.90
3560;DHT22;1794;48.804;9.156;2022-09-09T01:14:56;15.80;99.90
3560;DHT22;1794;48.804;9.156;2022-09-09T01:17:28;15.70;99.90
3560;DHT22;1794;48.804;9.156;2022-09-09T01:20:03;15.60;99.90
3560;DHT22;1794;48.804;9.156;2022-09-09T01:22:35;15.60;99.90
3560;DHT22;1794;48.804;9.156;2022-09-09T01:25:22;15.60;99.90
3560;DHT22;1794;48.804;9.156;2022-09-09T01:27:56;15.60;99.90
3560;DHT22;1794;48.804;9.156;2022-09-09T01:30:24;15.60;99.90
3560;DHT22;1794;48.804;9.156;2022-09-09T01:32:54;15.50;99.90
3560;DHT22;1794;48.804;9.156;2022-09-09T01:35:31;15.50;99.90
3560;DHT22;1794;48.804;9.156;2022-09-09T01:37:59;15.60;99.90
3560;DHT22;1794;48.804;9.156;2022-09-09T01:40:26;15.70;99.90
3560;DHT22;1794;48.804;9.156;2022-09-09T01:42:55;15.70;99.90
3560;DHT22;1794;48.804;9.156;2022-09-09T01:45:22;15.70;99.90
3560;DHT22;1794;48.804;9.156;2022-09-09T01:47:51;15.70;99.90
3560;DHT22;1794;48.804;9.156;2022-09-09T01:50:19;15.60;99.90
3560;DHT22;1794;48.804;9.156;2022-09-09T01:52:48;15.50;99.90
3560;DHT22;1794;48.804;9.156;2022-09-09T01:55:16;15.50;99.90
3560;DHT22;1794;48.804;9.156;2022-09-09T01:57:53;15.30;99.90
3560;DHT22;1794;48.804;9.156;2022-09-09T02:00:24;15.40;99.90
3560;DHT22;1794;48.804;9.156;2022-09-09T02:02:57;15.40;99.90
3560;DHT22;1794;48.804;9.156;2022-09-09T02:05:34;15.30;99.90
3560;DHT22;1794;48.804;9.156;2022-09-09T02:08:06;15.10;99.90
3560;DHT22;1794;48.804;9.156;2022-09-09T02:10:37;15.00;99.90
3560;DHT22;1794;48.804;9.156;2022-09-09T02:13:09;15.10;99.90
3560;DHT22;1794;48.804;9.156;2022-09-09T02:15:44;15.00;99.90
3560;DHT22;1794;48.804;9.156;2022-09-09T02:18:15;14.70;99.90
3560;DHT22;1794;48.804;9.156;2022-09-09T02:20:44;14.50;99.90
3560;DHT22;1794;48.804;9.156;2022-09-09T02:23:11;14.40;99.90
3560;DHT22;1794;48.804;9.156;2022-09-09T02:25:40;14.30;99.90
3560;DHT22;1794;48.804;9.156;2022-09-09T02:28:09;14.10;99.90
3560;DHT22;1794;48.804;9.156;2022-09-09T02:30:40;14.10;99.90
3560;DHT22;1794;48.804;9.156;2022-09-09T02:33:08;14.10;99.90
3560;DHT22;1794;48.804;9.156;2022-09-09T02:35:38;14.00;99.90
3560;DHT22;1794;48.804;9.156;2022-09-09T02:38:09;13.80;99.90
3560;DHT22;1794;48.804;9.156;2022-09-09T02:40:36;13.70;99.90
3560;DHT22;1794;48.804;9.156;2022-09-09T02:43:03;13.60;99.90
3560;DHT22;1794;48.804;9.156;2022-09-09T02:45:36;13.50;99.90
3560;DHT22;1794;48.804;9.156;2022-09-09T02:48:11;13.50;99.90
3560;DHT22;1794;48.804;9.156;2022-09-09T02:50:45;13.30;99.90
3560;DHT22;1794;48.804;9.156;2022-09-09T02:53:17;13.30;99.90
3560;DHT22;1794;48.804;9.156;2022-09-09T02:55:48;13.20;99.90
3560;DHT22;1794;48.804;9.156;2022-09-09T02:58:17;13.10;99.90
3560;DHT22;1794;48.804;9.156;2022-09-09T03:00:46;13.10;99.90
3560;DHT22;1794;48.804;9.156;2022-09-09T03:03:15;13.10;99.90
3560;DHT22;1794;48.804;9.156;2022-09-09T03:05:43;13.10;99.90
3560;DHT22;1794;48.804;9.156;2022-09-09T03:08:10;13.00;99.90
3560;DHT22;1794;48.804;9.156;2022-09-09T03:10:38;12.90;99.90
3560;DHT22;1794;48.804;9.156;2022-09-09T03:13:05;12.90;99.90
3560;DHT22;1794;48.804;9.156;2022-09-09T03:15:34;12.90;99.90
3560;DHT22;1794;48.804;9.156;2022-09-09T03:18:01;12.80;99.90
3560;DHT22;1794;48.804;9.156;2022-09-09T03:20:30;12.80;99.90
3560;DHT22;1794;48.804;9.156;2022-09-09T03:22:59;12.90;99.90
3560;DHT22;1794;48.804;9.156;2022-09-09T03:25:27;13.00;99.90
3560;DHT22;1794;48.804;9.156;2022-09-09T03:27:56;12.90;99.90
3560;DHT22;1794;48.804;9.156;2022-09-09T03:30:24;13.00;99.90
3560;DHT22;1794;48.804;9.156;2022-09-09T03:32:51;13.00;99.90
3560;DHT22;1794;48.804;9.156;2022-09-09T03:35:17;13.10;99.90
3560;DHT22;1794;48.804;9.156;2022-09-09T03:37:46;13.30;99.90
3560;DHT22;1794;48.804;9.156;2022-09-09T03:40:13;13.30;99.90
3560;DHT22;1794;48.804;9.156;2022-09-09T03:42:40;13.40;99.90
3560;DHT22;1794;48.804;9.156;2022-09-09T03:45:09;13.20;99.90
3560;DHT22;1794;48.804;9.156;2022-09-09T03:47:36;13.00;99.90
3560;DHT22;1794;48.804;9.156;2022-09-09T03:50:04;12.90;99.90
3560;DHT22;1794;48.804;9.156;2022-09-09T03:52:34;13.00;99.90
3560;DHT22;1794;48.804;9.156;2022-09-09T03:55:04;13.50;99.90
3560;DHT22;1794;48.804;9.156;2022-09-09T03:57:31;13.60;99.90
3560;DHT22;1794;48.804;9.156;2022-09-09T04:00:00;13.70;99.90
3560;DHT22;1794;48.804;9.156;2022-09-09T04:02:27;13.60;99.90
3560;DHT22;1794;48.804;9.156;2022-09-09T04:04:54;13.70;99.90
3560;DHT22;1794;48.804;9.156;2022-09-09T04:07:21;13.70;99.90
3560;DHT22;1794;48.804;9.156;2022-09-09T04:09:48;13.60;99.90
3560;DHT22;1794;48.804;9.156;2022-09-09T04:12:16;13.80;99.90
3560;DHT22;1794;48.804;9.156;2022-09-09T04:14:43;14.10;99.90
3560;DHT22;1794;48.804;9.156;2022-09-09T04:17:10;14.30;99.90
3560;DHT22;1794;48.804;9.156;2022-09-09T04:19:36;14.30;99.90
3560;DHT22;1794;48.804;9.156;2022-09-09T04:22:03;14.50;99.90
3560;DHT22;1794;48.804;9.156;2022-09-09T04:24:30;14.60;99.90
3560;DHT22;1794;48.804;9.156;2022-09-09T04:26:57;14.70;99.90
3560;DHT22;1794;48.804;9.156;2022-09-09T04:29:25;14.70;99.90
3560;DHT22;1794;48.804;9.156;2022-09-09T04:31:51;14.70;99.90
3560;DHT22;1794;48.804;9.156;2022-09-09T04:34:18;14.60;99.90
3560;DHT22;1794;48.804;9.156;2022-09-09T04:36:45;14.50;99.90
3560;DHT22;1794;48.804;9.156;2022-09-09T04:39:12;14.40;99.90
3560;DHT22;1794;48.804;9.156;2022-09-09T04:41:38;14.40;99.90
3560;DHT22;1794;48.804;9.156;2022-09-09T04:44:05;14.40;99.90
3560;DHT22;1794;48.804;9.156;2022-09-09T04:46:33;14.40;99.90
3560;DHT22;1794;48.804;9.156;2022-09-09T04:49:00;14.30;99.90
3560;DHT22;1794;48.804;9.156;2022-09-09T04:51:27;14.10;99.90
3560;DHT22;1794;48.804;9.156;2022-09-09T04:53:56;14.00;99.90
3560;DHT22;1794;48.804;9.156;2022-09-09T04:56:24;13.80;99.90
3560;DHT22;1794;48.804;9.156;2022-09-09T04:58:52;13.80;99.90
3560;DHT22;1794;48.804;9.156;2022-09-09T05:01:21;13.80;99.90
3560;DHT22;1794;48.804;9.156;2022-09-09T05:03:50;13.80;99.90
3560;DHT22;1794;48.804;9.156;2022-09-09T05:06:19;13.70;99.90
3560;DHT22;1794;48.804;9.156;2022-09-09T05:08:46;13.70;99.90
3560;DHT22;1794;48.804;9.156;2022-09-09T05:11:15;13.80;99.90
3560;DHT22;1794;48.804;9.156;2022-09-09T05:13:42;14.00;99.90
3560;DHT22;1794;48.804;9.156;2022-09-09T05:16:09;14.00;99.90
3560;DHT22;1794;48.804;9.156;2022-09-09T05:18:37;14.20;99.90
3560;DHT22;1794;48.804;9.156;2022-09-09T05:21:05;14.50;99.90
3560;DHT22;1794;48.804;9.156;2022-09-09T05:23:32;14.70;99.90
3560;DHT22;1794;48.804;9.156;2022-09-09T05:26:00;14.70;99.90
3560;DHT22;1794;48.804;9.156;2022-09-09T05:28:27;14.80;99.90
3560;DHT22;1794;48.804;9.156;2022-09-09T05:30:58;14.90;99.90
3560;DHT22;1794;48.804;9.156;2022-09-09T05:33:26;15.00;99.90
3560;DHT22;1794;48.804;9.156;2022-09-09T05:36:00;15.00;99.90
3560;DHT22;1794;48.804;9.156;2022-09-09T05:38:29;15.20;99.90
3560;DHT22;1794;48.804;9.156;2022-09-09T05:40:56;15.30;99.90
3560;DHT22;1794;48.804;9.156;2022-09-09T05:43:23;15.40;93.70
3560;DHT22;1794;48.804;9.156;2022-09-09T05:45:59;15.50;96.50
3560;DHT22;1794;48.804;9.156;2022-09-09T05:48:28;15.60;76.70
3560;DHT22;1794;48.804;9.156;2022-09-09T05:50:56;15.70;56.10
3560;DHT22;1794;48.804;9.156;2022-09-09T05:53:22;15.80;49.30
3560;DHT22;1794;48.804;9.156;2022-09-09T05:55:57;15.80;75.10
3560;DHT22;1794;48.804;9.156;2022-09-09T05:58:24;15.70;58.60
3560;DHT22;1794;48.804;9.156;2022-09-09T06:00:50;15.90;66.40
3560;DHT22;1794;48.804;9.156;2022-09-09T06:03:17;15.90;44.40
3560;DHT22;1794;48.804;9.156;2022-09-09T06:05:44;16.10;36.00
3560;DHT22;1794;48.804;9.156;2022-09-09T06:08:10;16.10;39.70
3560;DHT22;1794;48.804;9.156;2022-09-09T06:10:37;16.20;11.50
3560;DHT22;1794;48.804;9.156;2022-09-09T06:13:05;16.30;37.20
3560;DHT22;1794;48.804;9.156;2022-09-09T06:15:32;16.30;27.10
3560;DHT22;1794;48.804;9.156;2022-09-09T06:17:59;16.40;17.40
3560;DHT22;1794;48.804;9.156;2022-09-09T06:20:26;16.50;3.40
3560;DHT22;1794;48.804;9.156;2022-09-09T06:22:56;16.50;1.00
3560;DHT22;1794;48.804;9.156;2022-09-09T06:25:22;16.60;1.00
3560;DHT22;1794;48.804;9.156;2022-09-09T06:27:49;16.70;1.00
3560;DHT22;1794;48.804;9.156;2022-09-09T06:30:17;16.70;1.00
3560;DHT22;1794;48.804;9.156;2022-09-09T06:32:45;16.80;1.00
3560;DHT22;1794;48.804;9.156;2022-09-09T06:35:11;16.80;1.00
3560;DHT22;1794;48.804;9.156;2022-09-09T06:37:39;16.90;1.00
3560;DHT22;1794;48.804;9.156;2022-09-09T06:40:06;16.90;1.00
3560;DHT22;1794;48.804;9.156;2022-09-09T06:42:33;17.10;1.00
3560;DHT22;1794;48.804;9.156;2022-09-09T06:45:00;16.80;6.70
3560;DHT22;1794;48.804;9.156;2022-09-09T06:47:29;16.90;2.70
3560;DHT22;1794;48.804;9.156;2022-09-09T06:49:56;17.00;1.00
3560;DHT22;1794;48.804;9.156;2022-09-09T06:52:23;16.90;1.00
3560;DHT22;1794;48.804;9.156;2022-09-09T06:54:51;17.00;1.00
3560;DHT22;1794;48.804;9.156;2022-09-09T06:57:19;17.20;18.60
3560;DHT22;1794;48.804;9.156;2022-09-09T06:59:46;17.10;1.00
3560;DHT22;1794;48.804;9.156;2022-09-09T07:02:13;17.10;1.00
3560;DHT22;1794;48.804;9.156;2022-09-09T07:04:41;17.10;1.00
3560;DHT22;1794;48.804;9.156;2022-09-09T07:07:08;17.20;1.00
3560;DHT22;1794;48.804;9.156;2022-09-09T07:09:37;17.30;1.00
3560;DHT22;1794;48.804;9.156;2022-09-09T07:12:04;17.50;1.00
3560;DHT22;1794;48.804;9.156;2022-09-09T07:14:31;17.70;1.00
3560;DHT22;1794;48.804;9.156;2022-09-09T07:16:59;17.70;1.00
3560;DHT22;1794;48.804;9.156;2022-09-09T07:19:26;17.80;1.00
3560;DHT22;1794;48.804;9.156;2022-09-09T07:21:54;18.00;1.00
3560;DHT22;1794;48.804;9.156;2022-09-09T07:24:21;18.00;1.00
3560;DHT22;1794;48.804;9.156;2022-09-09T07:26:47;18.10;1.00
3560;DHT22;1794;48.804;9.156;2022-09-09T07:29:14;18.40;1.00
3560;DHT22;1794;48.804;9.156;2022-09-09T07:31:41;18.50;1.00
3560;DHT22;1794;48.804;9.156;2022-09-09T07:34:08;18.80;1.00
3560;DHT22;1794;48.804;9.156;2022-09-09T07:36:36;18.70;1.00
3560;DHT22;1794;48.804;9.156;2022-09-09T07:39:07;19.20;1.00
3560;DHT22;1794;48.804;9.156;2022-09-09T07:41:36;19.40;1.00
3560;DHT22;1794;48.804;9.156;2022-09-09T07:44:08;20.20;1.00
3560;DHT22;1794;48.804;9.156;2022-09-09T07:46:36;21.50;1.00
3560;DHT22;1794;48.804;9.156;2022-09-09T07:49:05;22.10;1.00
3560;DHT22;1794;48.804;9.156;2022-09-09T07:51:33;22.10;1.00
3560;DHT22;1794;48.804;9.156;2022-09-09T07:54:02;22.10;1.00
3560;DHT22;1794;48.804;9.156;2022-09-09T07:56:30;21.70;1.00
3560;DHT22;1794;48.804;9.156;2022-09-09T07:58:58;23.00;1.00
3560;DHT22;1794;48.804;9.156;2022-09-09T08:01:27;24.10;1.00
3560;DHT22;1794;48.804;9.156;2022-09-09T08:03:56;25.20;1.00
3560;DHT22;1794;48.804;9.156;2022-09-09T08:06:26;25.90;26.90
3560;DHT22;1794;48.804;9.156;2022-09-09T08:08:53;26.70;99.90
3560;DHT22;1794;48.804;9.156;2022-09-09T08:11:22;26.30;99.90
3560;DHT22;1794;48.804;9.156;2022-09-09T08:13:51;25.40;99.90
3560;DHT22;1794;48.804;9.156;2022-09-09T08:16:20;25.90;99.90
3560;DHT22;1794;48.804;9.156;2022-09-09T08:18:47;26.50;99.90
3560;DHT22;1794;48.804;9.156;2022-09-09T08:21:16;24.60;99.90
3560;DHT22;1794;48.804;9.156;2022-09-09T08:23:45;25.00;99.90
3560;DHT22;1794;48.804;9.156;2022-09-09T08:26:14;26.60;99.90
3560;DHT22;1794;48.804;9.156;2022-09-09T08:28:41;25.90;99.90
3560;DHT22;1794;48.804;9.156;2022-09-09T08:31:11;25.40;99.90
3560;DHT22;1794;48.804;9.156;2022-09-09T08:33:38;25.10;99.90
3560;DHT22;1794;48.804;9.156;2022-09-09T08:36:09;25.90;99.90
3560;DHT22;1794;48.804;9.156;2022-09-09T08:38:36;25.00;99.90
3560;DHT22;1794;48.804;9.156;2022-09-09T08:41:36;24.20;99.90
3560;DHT22;1794;48.804;9.156;2022-09-09T08:44:09;23.40;99.90
3560;DHT22;1794;48.804;9.156;2022-09-09T08:46:46;25.50;99.90
3560;DHT22;1794;48.804;9.156;2022-09-09T08:49:30;27.30;99.90
3560;DHT22;1794;48.804;9.156;2022-09-09T08:52:02;28.60;99.90
3560;DHT22;1794;48.804;9.156;2022-09-09T08:54:34;28.00;99.90
3560;DHT22;1794;48.804;9.156;2022-09-09T08:57:02;27.60;99.90
3560;DHT22;1794;48.804;9.156;2022-09-09T08:59:29;28.50;99.90
3560;DHT22;1794;48.804;9.156;2022-09-09T09:02:03;28.40;99.90
3560;DHT22;1794;48.804;9.156;2022-09-09T09:04:48;29.00;99.90
3560;DHT22;1794;48.804;9.156;2022-09-09T09:07:25;26.60;99.90
3560;DHT22;1794;48.804;9.156;2022-09-09T09:10:00;25.80;99.90
3560;DHT22;1794;48.804;9.156;2022-09-09T09:12:35;24.10;99.90
3560;DHT22;1794;48.804;9.156;2022-09-09T09:15:02;23.90;99.90
3560;DHT22;1794;48.804;9.156;2022-09-09T09:17:37;23.40;99.90
3560;DHT22;1794;48.804;9.156;2022-09-09T09:20:10;22.70;99.90
3560;DHT22;1794;48.804;9.156;2022-09-09T09:22:44;22.00;99.90
3560;DHT22;1794;48.804;9.156;2022-09-09T09:25:17;21.40;99.90
3560;DHT22;1794;48.804;9.156;2022-09-09T09:27:49;20.90;99.90
3560;DHT22;1794;48.804;9.156;2022-09-09T09:30:20;20.70;99.90
3560;DHT22;1794;48.804;9.156;2022-09-09T09:32:52;20.70;99.90
3560;DHT22;1794;48.804;9.156;2022-09-09T09:35:20;20.20;99.90
3560;DHT22;1794;48.804;9.156;2022-09-09T09:37:47;20.00;99.90
3560;DHT22;1794;48.804;9.156;2022-09-09T09:40:16;19.90;99.90
3560;DHT22;1794;48.804;9.156;2022-09-09T09:42:52;19.80;99.90
3560;DHT22;1794;48.804;9.156;2022-09-09T09:45:27;20.00;99.90
3560;DHT22;1794;48.804;9.156;2022-09-09T09:48:01;20.30;99.90
3560;DHT22;1794;48.804;9.156;2022-09-09T09:50:29;22.20;99.90
3560;DHT22;1794;48.804;9.156;2022-09-09T09:52:58;24.00;99.90
3560;DHT22;1794;48.804;9.156;2022-09-09T09:55:26;25.10;99.90
3560;DHT22;1794;48.804;9.156;2022-09-09T09:57:53;25.80;99.90
3560;DHT22;1794;48.804;9.156;2022-09-09T10:00:22;26.50;99.90
3560;DHT22;1794;48.804;9.156;2022-09-09T10:02:50;27.70;99.90
3560;DHT22;1794;48.804;9.156;2022-09-09T10:05:21;29.80;99.90
3560;DHT22;1794;48.804;9.156;2022-09-09T10:08:00;28.90;99.90
3560;DHT22;1794;48.804;9.156;2022-09-09T10:10:35;26.50;99.90
3560;DHT22;1794;48.804;9.156;2022-09-09T10:13:10;25.80;99.90
3560;DHT22;1794;48.804;9.156;2022-09-09T10:15:43;27.00;99.90
3560;DHT22;1794;48.804;9.156;2022-09-09T10:18:45;27.60;99.90
3560;DHT22;1794;48.804;9.156;2022-09-09T10:21:26;29.00;99.90
3560;DHT22;1794;48.804;9.156;2022-09-09T10:24:07;29.00;99.90
3560;DHT22;1794;48.804;9.156;2022-09-09T10:26:42;30.10;99.90
3560;DHT22;1794;48.804;9.156;2022-09-09T10:29:30;26.70;99.90
3560;DHT22;1794;48.804;9.156;2022-09-09T10:32:07;28.50;99.90
3560;DHT22;1794;48.804;9.156;2022-09-09T10:34:55;29.10;99.90
3560;DHT22;1794;48.804;9.156;2022-09-09T10:37:34;29.00;99.90
3560;DHT22;1794;48.804;9.156;2022-09-09T10:40:20;26.10;99.90
3560;DHT22;1794;48.804;9.156;2022-09-09T10:42:50;27.10;99.90
3560;DHT22;1794;48.804;9.156;2022-09-09T10:45:19;26.20;99.90
3560;DHT22;1794;48.804;9.156;2022-09-09T10:48:01;25.20;99.90
3560;DHT22;1794;48.804;9.156;2022-09-09T10:50:42;24.70;99.90
3560;DHT22;1794;48.804;9.156;2022-09-09T10:53:17;24.10;99.90
3560;DHT22;1794;48.804;9.156;2022-09-09T10:55:51;26.60;99.90
3560;DHT22;1794;48.804;9.156;2022-09-09T10:58:22;26.20;99.90
3560;DHT22;1794;48.804;9.156;2022-09-09T11:00:54;26.40;99.90
3560;DHT22;1794;48.804;9.156;2022-09-09T11:03:25;25.00;99.90
3560;DHT22;1794;48.804;9.156;2022-09-09T11:05:56;24.80;99.90
3560;DHT22;1794;48.804;9.156;2022-09-09T11:08:27;27.90;99.90
3560;DHT22;1794;48.804;9.156;2022-09-09T11:11:00;27.30;99.90
3560;DHT22;1794;48.804;9.156;2022-09-09T11:13:35;25.20;99.90
3560;DHT22;1794;48.804;9.156;2022-09-09T11:16:15;23.90;99.90
3560;DHT22;1794;48.804;9.156;2022-09-09T11:18:43;22.90;99.90
3560;DHT22;1794;48.804;9.156;2022-09-09T11:21:16;22.50;99.90
3560;DHT22;1794;48.804;9.156;2022-09-09T11:23:49;21.90;99.90
3560;DHT22;1794;48.804;9.156;2022-09-09T11:26:28;21.60;99.90
3560;DHT22;1794;48.804;9.156;2022-09-09T11:29:17;21.50;99.90
3560;DHT22;1794;48.804;9.156;2022-09-09T11:32:00;21.60;99.90
3560;DHT22;1794;48.804;9.156;2022-09-09T11:34:39;21.50;99.90
3560;DHT22;1794;48.804;9.156;2022-09-09T11:37:25;21.80;99.90
3560;DHT22;1794;48.804;9.156;2022-09-09T11:40:15;21.70;99.90
3560;DHT22;1794;48.804;9.156;2022-09-09T11:42:43;21.40;99.90
3560;DHT22;1794;48.804;9.156;2022-09-09T11:45:19;21.50;99.90
3560;DHT22;1794;48.804;9.156;2022-09-09T11:47:52;21.50;99.90
3560;DHT22;1794;48.804;9.156;2022-09-09T11:50:37;21.70;99.90
3560;DHT22;1794;48.804;9.156;2022-09-09T11:53:20;20.80;99.90
3560;DHT22;1794;48.804;9.156;2022-09-09T11:56:10;21.20;99.90
3560;DHT22;1794;48.804;9.156;2022-09-09T11:58:41;21.60;99.90
3560;DHT22;1794;48.804;9.156;2022-09-09T12:01:34;21.80;99.90
3560;DHT22;1794;48.804;9.156;2022-09-09T12:04:13;21.70;99.90
3560;DHT22;1794;48.804;9.156;2022-09-09T12:06:45;20.90;99.90
3560;DHT22;1794;48.804;9.156;2022-09-09T12:09:19;22.50;99.90
3560;DHT22;1794;48.804;9.156;2022-09-09T12:11:50;23.80;99.90
3560;DHT22;1794;48.804;9.156;2022-09-09T12:14:22;25.20;99.90
3560;DHT22;1794;48.804;9.156;2022-09-09T12:16:49;24.00;99.90
3560;DHT22;1794;48.804;9.156;2022-09-09T12:19:19;24.80;99.90
3560;DHT22;1794;48.804;9.156;2022-09-09T12:21:53;25.20;99.90
3560;DHT22;1794;48.804;9.156;2022-09-09T12:24:29;26.70;99.90
3560;DHT22;1794;48.804;9.156;2022-09-09T12:27:03;29.70;99.90
3560;DHT22;1794;48.804;9.156;2022-09-09T12:29:38;30.90;99.90
3560;DHT22;1794;48.804;9.156;2022-09-09T12:32:11;31.90;99.90
3560;DHT22;1794;48.804;9.156;2022-09-09T12:34:40;30.00;99.60
3560;DHT22;1794;48.804;9.156;2022-09-09T12:37:15;31.50;98.80
3560;DHT22;1794;48.804;9.156;2022-09-09T12:39:47;30.70;99.90
3560;DHT22;1794;48.804;9.156;2022-09-09T12:42:19;26.80;99.90
3560;DHT22;1794;48.804;9.156;2022-09-09T12:44:54;23.60;99.90
3560;DHT22;1794;48.804;9.156;2022-09-09T12:47:25;23.10;99.90
3560;DHT22;1794;48.804;9.156;2022-09-09T12:49:52;23.30;99.90
3560;DHT22;1794;48.804;9.156;2022-09-09T12:52:26;23.30;99.90
3560;DHT22;1794;48.804;9.156;2022-09-09T12:54:55;22.40;99.90
3560;DHT22;1794;48.804;9.156;2022-09-09T12:57:26;22.60;99.90
3560;DHT22;1794;48.804;9.156;2022-09-09T13:00:11;22.50;99.90
3560;DHT22;1794;48.804;9.156;2022-09-09T13:02:47;23.30;99.90
3560;DHT22;1794;48.804;9.156;2022-09-09T13:05:17;23.50;99.90
3560;DHT22;1794;48.804;9.156;2022-09-09T13:07:44;24.30;99.90
3560;DHT22;1794;48.804;9.156;2022-09-09T13:10:14;24.40;99.90
3560;DHT22;1794;48.804;9.156;2022-09-09T13:12:42;24.30;99.90
3560;DHT22;1794;48.804;9.156;2022-09-09T13:15:17;25.00;99.90
3560;DHT22;1794;48.804;9.156;2022-09-09T13:17:52;25.50;99.90
3560;DHT22;1794;48.804;9.156;2022-09-09T13:20:22;25.10;99.90
3560;DHT22;1794;48.804;9.156;2022-09-09T13:22:49;24.50;99.90
3560;DHT22;1794;48.804;9.156;2022-09-09T13:25:20;24.40;99.90
3560;DHT22;1794;48.804;9.156;2022-09-09T13:28:00;24.90;99.90
3560;DHT22;1794;48.804;9.156;2022-09-09T13:30:29;24.20;99.90
3560;DHT22;1794;48.804;9.156;2022-09-09T13:33:05;23.90;99.90
3560;DHT22;1794;48.804;9.156;2022-09-09T13:35:33;24.60;99.90
3560;DHT22;1794;48.804;9.156;2022-09-09T13:38:06;23.80;99.90
3560;DHT22;1794;48.804;9.156;2022-09-09T13:40:34;23.70;99.90
3560;DHT22;1794;48.804;9.156;2022-09-09T13:43:03;24.30;99.90
3560;DHT22;1794;48.804;9.156;2022-09-09T13:45:30;24.30;99.90
3560;DHT22;1794;48.804;9.156;2022-09-09T13:48:09;23.20;99.90
3560;DHT22;1794;48.804;9.156;2022-09-09T13:50:36;23.40;99.90
3560;DHT22;1794;48.804;9.156;2022-09-09T13:53:03;22.40;99.90
3560;DHT22;1794;48.804;9.156;2022-09-09T13:55:30;22.60;99.90
3560;DHT22;1794;48.804;9.156;2022-09-09T13:57:58;23.00;99.90
3560;DHT22;1794;48.804;9.156;2022-09-09T14:00:29;23.60;99.90
3560;DHT22;1794;48.804;9.156;2022-09-09T14:02:56;23.60;99.90
3560;DHT22;1794;48.804;9.156;2022-09-09T14:05:23;24.10;99.90
3560;DHT22;1794;48.804;9.156;2022-09-09T14:07:50;23.80;99.90
3560;DHT22;1794;48.804;9.156;2022-09-09T14:10:17;22.60;99.90
3560;DHT22;1794;48.804;9.156;2022-09-09T14:12:44;22.30;99.90
3560;DHT22;1794;48.804;9.156;2022-09-09T14:15:12;22.40;99.90
3560;DHT22;1794;48.804;9.156;2022-09-09T14:17:41;22.80;99.90
3560;DHT22;1794;48.804;9.156;2022-09-09T14:20:09;23.00;99.90
3560;DHT22;1794;48.804;9.156;2022-09-09T14:22:37;23.00;99.90
3560;DHT22;1794;48.804;9.156;2022-09-09T14:25:07;23.10;99.90
3560;DHT22;1794;48.804;9.156;2022-09-09T14:27:34;23.60;99.90
3560;DHT22;1794;48.804;9.156;2022-09-09T14:30:00;22.70;99.90
3560;DHT22;1794;48.804;9.156;2022-09-09T14:34:59;22.20;99.90
3560;DHT22;1794;48.804;9.156;2022-09-09T14:37:27;22.20;99.90
3560;DHT22;1794;48.804;9.156;2022-09-09T14:39:56;22.30;99.90
3560;DHT22;1794;48.804;9.156;2022-09-09T14:42:23;22.50;99.90
3560;DHT22;1794;48.804;9.156;2022-09-09T14:44:49;22.50;99.90
3560;DHT22;1794;48.804;9.156;2022-09-09T14:47:16;22.70;99.90
3560;DHT22;1794;48.804;9.156;2022-09-09T14:49:43;22.50;99.90
3560;DHT22;1794;48.804;9.156;2022-09-09T14:52:11;22.70;99.90
3560;DHT22;1794;48.804;9.156;2022-09-09T14:54:38;23.30;99.90
3560;DHT22;1794;48.804;9.156;2022-09-09T14:57:05;23.40;99.90
3560;DHT22;1794;48.804;9.156;2022-09-09T14:59:32;23.60;99.90
3560;DHT22;1794;48.804;9.156;2022-09-09T15:01:59;23.00;99.90
3560;DHT22;1794;48.804;9.156;2022-09-09T15:04:29;23.00;99.90
3560;DHT22;1794;48.804;9.156;2022-09-09T15:06:56;22.30;99.90
3560;DHT22;1794;48.804;9.156;2022-09-09T15:09:25;22.10;99.90
3560;DHT22;1794;48.804;9.156;2022-09-09T15:11:52;21.80;99.90
3560;DHT22;1794;48.804;9.156;2022-09-09T15:14:18;21.80;99.90
3560;DHT22;1794;48.804;9.156;2022-09-09T15:16:45;21.60;99.90
3560;DHT22;1794;48.804;9.156;2022-09-09T15:19:12;21.50;99.90
3560;DHT22;1794;48.804;9.156;2022-09-09T15:21:38;21.50;99.90
3560;DHT22;1794;48.804;9.156;2022-09-09T15:24:05;21.50;99.90
3560;DHT22;1794;48.804;9.156;2022-09-09T15:26:35;21.60;99.90
3560;DHT22;1794;48.804;9.156;2022-09-09T15:29:03;21.80;99.90
3560;DHT22;1794;48.804;9.156;2022-09-09T15:31:31;21.80;99.90
3560;DHT22;1794;48.804;9.156;2022-09-09T15:34:00;21.50;99.90
3560;DHT22;1794;48.804;9.156;2022-09-09T15:36:28;21.50;99.90
3560;DHT22;1794;48.804;9.156;2022-09-09T15:38:56;21.60;99.90
3560;DHT22;1794;48.804;9.156;2022-09-09T15:41:23;21.70;99.90
3560;DHT22;1794;48.804;9.156;2022-09-09T15:43:52;21.50;99.90
3560;DHT22;1794;48.804;9.156;2022-09-09T15:46:27;21.30;99.90
3560;DHT22;1794;48.804;9.156;2022-09-09T15:48:55;21.50;99.90
3560;DHT22;1794;48.804;9.156;2022-09-09T15:51:23;21.40;99.90
3560;DHT22;1794;48.804;9.156;2022-09-09T15:53:54;21.30;99.90
3560;DHT22;1794;48.804;9.156;2022-09-09T15:56:21;21.00;99.90
3560;DHT22;1794;48.804;9.156;2022-09-09T15:58:48;20.90;99.90
3560;DHT22;1794;48.804;9.156;2022-09-09T16:01:16;21.00;99.90
3560;DHT22;1794;48.804;9.156;2022-09-09T16:03:44;20.90;99.90
3560;DHT22;1794;48.804;9.156;2022-09-09T16:06:13;20.80;99.90
3560;DHT22;1794;48.804;9.156;2022-09-09T16:08:42;20.70;99.90
3560;DHT22;1794;48.804;9.156;2022-09-09T16:11:12;20.70;99.90
3560;DHT22;1794;48.804;9.156;2022-09-09T16:13:41;20.70;99.90
3560;DHT22;1794;48.804;9.156;2022-09-09T16:16:09;20.70;99.90
3560;DHT22;1794;48.804;9.156;2022-09-09T16:18:40;20.70;99.90
3560;DHT22;1794;48.804;9.156;2022-09-09T16:21:07;20.70;99.90
3560;DHT22;1794;48.804;9.156;2022-09-09T16:23:36;20.70;99.90
3560;DHT22;1794;48.804;9.156;2022-09-09T16:26:03;20.70;99.90